createdAt,value
2023-02-09T00:01:20.223Z,30.40
2023-02-09T00:03:47.548Z,30.40
2023-02-09T00:06:17.413Z,30.40
2023-02-09T00:08:44.788Z,30.30
2023-02-09T00:11:43.123Z,30.30
2023-02-09T00:14:11.707Z,30.30
2023-02-09T00:16:38.820Z,30.30
2023-02-09T00:19:05.943Z,30.30
2023-02-09T00:21:33.522Z,30.30
2023-02-09T00:24:00.877Z,30.30
2023-02-09T00:26:27.977Z,30.30
2023-02-09T00:28:55.111Z,30.30
2023-02-09T00:31:22.311Z,30.30
2023-02-09T00:33:49.611Z,30.20
2023-02-09T00:36:17.166Z,30.20
2023-02-09T00:38:44.968Z,30.20
2023-02-09T00:41:14.065Z,30.20
2023-02-09T00:43:41.640Z,30.20
2023-02-09T00:46:09.308Z,30.20
2023-02-09T00:48:36.401Z,30.20
2023-02-09T00:51:03.555Z,30.20
2023-02-09T00:53:30.644Z,30.20
2023-02-09T00:55:57.752Z,30.20
2023-02-09T00:58:24.922Z,30.10
2023-02-09T01:00:52.062Z,30.20
2023-02-09T01:03:19.175Z,30.20
2023-02-09T01:05:46.237Z,30.10
2023-02-09T01:08:13.422Z,30.10
2023-02-09T01:10:40.559Z,30.10
2023-02-09T01:13:08.699Z,30.20
2023-02-09T01:15:35.828Z,30.20
2023-02-09T01:18:02.890Z,30.20
2023-02-09T01:20:29.960Z,30.20
2023-02-09T01:22:57.023Z,30.10
2023-02-09T01:25:24.376Z,30.10
2023-02-09T01:27:51.570Z,30.10
2023-02-09T01:30:18.781Z,30.10
2023-02-09T01:32:45.853Z,30.10
2023-02-09T01:35:13.010Z,30.00
2023-02-09T01:37:40.218Z,30.60
2023-02-09T01:40:08.266Z,30.00
2023-02-09T01:42:35.577Z,30.00
2023-02-09T01:45:22.332Z,30.00
2023-02-09T01:47:56.648Z,30.00
2023-02-09T01:50:25.962Z,30.00
2023-02-09T01:52:54.165Z,30.00
2023-02-09T01:55:25.691Z,30.00
2023-02-09T01:58:01.147Z,30.00
2023-02-09T02:00:28.446Z,30.00
2023-02-09T02:03:00.640Z,30.00
2023-02-09T02:05:29.554Z,30.00
2023-02-09T02:08:23.701Z,30.00
2023-02-09T02:10:52.971Z,30.00
2023-02-09T02:13:20.595Z,30.00
2023-02-09T02:16:27.208Z,29.90
2023-02-09T02:19:33.991Z,29.90
2023-02-09T02:22:32.283Z,30.00
2023-02-09T02:25:34.828Z,29.90
2023-02-09T02:28:42.120Z,29.90
2023-02-09T02:31:48.991Z,29.90
2023-02-09T02:34:46.162Z,29.90
2023-02-09T02:37:45.417Z,29.90
2023-02-09T02:40:41.729Z,29.90
2023-02-09T02:43:41.939Z,29.90
2023-02-09T02:46:48.749Z,29.90
2023-02-09T02:49:31.588Z,29.90
2023-02-09T02:52:04.279Z,29.90
2023-02-09T02:54:36.748Z,29.80
2023-02-09T02:57:09.065Z,29.80
2023-02-09T02:59:46.630Z,29.80
2023-02-09T03:02:22.801Z,29.80
2023-02-09T03:04:53.100Z,29.80
2023-02-09T03:07:20.271Z,29.80
2023-02-09T03:09:55.971Z,29.80
2023-02-09T03:12:58.132Z,29.80
2023-02-09T03:15:42.685Z,29.80
2023-02-09T03:18:23.186Z,29.70
2023-02-09T03:21:01.284Z,29.80
2023-02-09T03:24:07.416Z,29.80
2023-02-09T03:26:43.488Z,29.80
2023-02-09T03:29:12.794Z,29.80
2023-02-09T03:31:40.716Z,29.80
2023-02-09T03:34:09.631Z,29.80
2023-02-09T03:36:38.730Z,29.80
2023-02-09T03:39:06.331Z,29.80
2023-02-09T03:41:33.392Z,29.80
2023-02-09T03:44:20.317Z,29.80
2023-02-09T03:46:47.439Z,29.70
2023-02-09T03:49:17.555Z,29.70
2023-02-09T03:51:44.633Z,29.70
2023-02-09T03:54:11.905Z,29.70
2023-02-09T03:56:38.947Z,29.60
2023-02-09T03:59:06.323Z,29.60
2023-02-09T04:01:33.892Z,29.60
2023-02-09T04:04:02.595Z,29.60
2023-02-09T04:06:31.859Z,29.60
2023-02-09T04:09:00.262Z,29.60
2023-02-09T04:11:27.759Z,29.60
2023-02-09T04:13:55.304Z,29.60
2023-02-09T04:16:22.445Z,29.60
2023-02-09T04:18:49.721Z,29.60
2023-02-09T04:21:17.000Z,29.60
2023-02-09T04:23:44.152Z,29.60
2023-02-09T04:26:11.351Z,29.50
2023-02-09T04:28:38.526Z,29.50
2023-02-09T04:31:05.970Z,29.50
2023-02-09T04:33:33.119Z,29.50
2023-02-09T04:36:00.304Z,29.50
2023-02-09T04:38:27.581Z,29.50
2023-02-09T04:40:56.170Z,29.50
2023-02-09T04:43:23.724Z,29.50
2023-02-09T04:45:50.873Z,29.50
2023-02-09T04:48:20.401Z,29.50
2023-02-09T04:50:48.068Z,29.50
2023-02-09T04:53:16.017Z,29.50
2023-02-09T04:55:44.740Z,29.50
2023-02-09T04:58:33.729Z,29.50
2023-02-09T05:01:00.916Z,29.50
2023-02-09T05:03:28.947Z,29.40
2023-02-09T05:06:01.030Z,29.40
2023-02-09T05:08:28.819Z,29.40
2023-02-09T05:10:56.314Z,29.40
2023-02-09T05:13:24.346Z,29.40
2023-02-09T05:15:51.994Z,29.40
2023-02-09T05:18:19.211Z,29.40
2023-02-09T05:20:48.107Z,29.40
2023-02-09T05:23:15.700Z,29.40
2023-02-09T05:25:42.873Z,29.40
2023-02-09T05:28:10.147Z,29.40
2023-02-09T05:30:37.777Z,29.40
2023-02-09T05:33:04.924Z,29.50
2023-02-09T05:35:32.014Z,29.50
2023-02-09T05:37:59.130Z,29.40
2023-02-09T05:40:26.242Z,29.20
2023-02-09T05:42:53.371Z,29.10
2023-02-09T05:45:20.478Z,29.10
2023-02-09T05:47:47.561Z,29.00
2023-02-09T05:50:15.248Z,29.00
2023-02-09T05:52:42.385Z,29.00
2023-02-09T05:55:09.504Z,28.90
2023-02-09T05:57:36.715Z,29.00
2023-02-09T06:00:06.182Z,28.90
2023-02-09T06:02:33.654Z,29.00
2023-02-09T06:05:00.800Z,29.00
2023-02-09T06:07:28.071Z,29.00
2023-02-09T06:09:55.194Z,29.00
2023-02-09T06:12:22.260Z,29.10
2023-02-09T06:14:49.376Z,29.10
2023-02-09T06:17:16.492Z,29.10
2023-02-09T06:19:43.649Z,29.20
2023-02-09T06:22:10.824Z,29.30
2023-02-09T06:24:37.926Z,29.30
2023-02-09T06:27:04.954Z,29.30
2023-02-09T06:29:32.365Z,29.30
2023-02-09T06:31:59.608Z,29.20
2023-02-09T06:34:26.835Z,29.30
2023-02-09T06:36:54.022Z,29.20
2023-02-09T06:39:21.143Z,29.30
2023-02-09T06:41:48.186Z,29.20
2023-02-09T06:44:15.310Z,29.20
2023-02-09T06:46:42.497Z,29.20
2023-02-09T06:49:09.720Z,29.30
2023-02-09T06:51:37.139Z,29.20
2023-02-09T06:54:04.441Z,29.30
2023-02-09T06:56:31.525Z,29.30
2023-02-09T06:58:58.677Z,29.30
2023-02-09T07:01:25.938Z,29.30
2023-02-09T07:03:53.084Z,29.60
2023-02-09T07:06:21.577Z,29.60
2023-02-09T07:08:50.354Z,29.60
2023-02-09T07:11:19.499Z,29.70
2023-02-09T07:13:47.051Z,29.80
2023-02-09T07:16:14.922Z,29.70
2023-02-09T07:18:42.185Z,29.90
2023-02-09T07:21:15.745Z,30.00
2023-02-09T07:23:42.961Z,30.10
2023-02-09T07:26:15.439Z,30.30
2023-02-09T07:28:43.009Z,30.50
2023-02-09T07:31:13.366Z,30.60
2023-02-09T07:33:40.677Z,30.50
2023-02-09T07:36:10.464Z,30.50
2023-02-09T07:38:38.632Z,30.40
2023-02-09T07:41:07.701Z,30.50
2023-02-09T07:43:35.245Z,30.40
2023-02-09T07:46:06.070Z,30.20
2023-02-09T07:48:33.870Z,30.00
2023-02-09T07:51:01.367Z,29.80
2023-02-09T07:53:29.283Z,29.90
2023-02-09T07:55:57.070Z,29.90
2023-02-09T07:58:24.510Z,30.00
2023-02-09T08:00:52.352Z,29.90
2023-02-09T08:03:22.705Z,29.80
2023-02-09T08:06:05.912Z,29.90
2023-02-09T08:08:32.991Z,29.90
2023-02-09T08:11:01.743Z,29.90
2023-02-09T08:13:34.176Z,29.80
2023-02-09T08:16:05.788Z,29.80
2023-02-09T08:18:38.254Z,29.90
2023-02-09T08:21:08.844Z,29.90
2023-02-09T08:23:39.453Z,29.80
2023-02-09T08:26:11.420Z,29.80
2023-02-09T08:28:44.922Z,30.00
2023-02-09T08:31:17.591Z,30.00
2023-02-09T08:33:46.671Z,30.10
2023-02-09T08:36:14.954Z,30.10
2023-02-09T08:38:42.489Z,30.00
2023-02-09T08:41:12.939Z,29.90
2023-02-09T08:43:40.070Z,30.00
2023-02-09T08:46:13.207Z,30.10
2023-02-09T08:48:42.522Z,30.70
2023-02-09T08:51:11.502Z,30.30
2023-02-09T08:53:39.565Z,30.50
2023-02-09T08:56:07.099Z,30.50
2023-02-09T08:58:35.043Z,30.20
2023-02-09T09:01:02.650Z,30.10
2023-02-09T09:03:31.926Z,30.00
2023-02-09T09:06:04.519Z,29.90
2023-02-09T09:08:33.355Z,29.70
2023-02-09T09:11:00.861Z,29.50
2023-02-09T09:13:28.307Z,29.30
2023-02-09T09:15:56.010Z,29.20
2023-02-09T09:18:24.972Z,29.30
2023-02-09T09:20:52.684Z,29.40
2023-02-09T09:23:21.518Z,29.50
2023-02-09T09:25:49.067Z,29.40
2023-02-09T09:28:16.342Z,29.40
2023-02-09T09:30:44.276Z,29.40
2023-02-09T09:33:11.536Z,29.40
2023-02-09T09:35:38.721Z,29.40
2023-02-09T09:38:05.824Z,29.40
2023-02-09T09:40:37.320Z,29.30
2023-02-09T09:43:08.952Z,29.20
2023-02-09T09:45:38.835Z,29.20
2023-02-09T09:48:09.353Z,29.10
2023-02-09T09:50:43.161Z,29.10
2023-02-09T09:53:31.916Z,29.00
2023-02-09T09:56:02.972Z,29.10
2023-02-09T09:58:32.334Z,29.10
2023-02-09T10:01:00.511Z,29.10
2023-02-09T10:03:27.715Z,29.00
2023-02-09T10:05:59.606Z,29.00
2023-02-09T10:08:40.585Z,28.90
2023-02-09T10:11:16.186Z,28.90
2023-02-09T10:13:49.152Z,28.80
2023-02-09T10:16:27.908Z,28.80
2023-02-09T10:18:57.792Z,28.70
2023-02-09T10:21:28.363Z,28.80
2023-02-09T10:24:12.966Z,28.70
2023-02-09T10:26:43.099Z,28.70
2023-02-09T10:29:24.293Z,28.70
2023-02-09T10:32:03.473Z,28.60
2023-02-09T10:34:41.526Z,28.70
2023-02-09T10:37:33.212Z,28.80
2023-02-09T10:40:17.690Z,28.80
2023-02-09T10:43:01.281Z,28.80
2023-02-09T10:45:37.845Z,28.80
2023-02-09T10:48:20.229Z,28.80
2023-02-09T10:51:07.394Z,28.70
2023-02-09T10:54:03.305Z,28.60
2023-02-09T10:56:49.451Z,28.60
2023-02-09T10:59:19.596Z,28.80
2023-02-09T11:02:02.032Z,28.60
2023-02-09T11:04:41.345Z,28.50
2023-02-09T11:07:17.016Z,28.40
2023-02-09T11:09:47.318Z,28.40
2023-02-09T11:12:15.110Z,28.30
2023-02-09T11:14:43.705Z,28.30
2023-02-09T11:17:36.538Z,28.20
2023-02-09T11:20:26.581Z,28.20
2023-02-09T11:23:30.264Z,28.20
2023-02-09T11:26:23.759Z,28.20
2023-02-09T11:29:16.801Z,28.20
2023-02-09T11:32:19.096Z,28.10
2023-02-09T11:35:10.156Z,28.10
2023-02-09T11:38:03.449Z,28.50
2023-02-09T11:40:52.003Z,28.00
2023-02-09T11:43:27.860Z,28.00
2023-02-09T11:46:04.260Z,28.10
2023-02-09T11:48:35.477Z,28.10
2023-02-09T11:51:16.717Z,28.00
2023-02-09T11:54:11.016Z,28.00
2023-02-09T11:56:42.238Z,28.00
2023-02-09T11:59:21.940Z,27.90
2023-02-09T12:02:28.895Z,28.00
2023-02-09T12:05:00.576Z,27.90
2023-02-09T12:08:02.738Z,27.80
2023-02-09T12:10:49.179Z,27.80
2023-02-09T12:13:40.645Z,27.80
2023-02-09T12:16:19.902Z,27.60
2023-02-09T12:18:47.477Z,27.50
2023-02-09T12:21:28.788Z,27.50
2023-02-09T12:23:55.869Z,27.50
2023-02-09T12:26:36.993Z,27.50
2023-02-09T12:29:35.389Z,27.40
2023-02-09T12:32:23.412Z,27.40
2023-02-09T12:34:53.984Z,27.40
2023-02-09T12:37:28.104Z,27.30
2023-02-09T12:40:18.563Z,27.30
2023-02-09T12:43:14.539Z,27.30
2023-02-09T12:45:44.199Z,27.30
2023-02-09T12:48:19.353Z,27.30
2023-02-09T12:50:53.511Z,27.20
2023-02-09T12:53:34.882Z,27.20
2023-02-09T12:56:24.199Z,27.20
2023-02-09T12:59:06.197Z,27.20
2023-02-09T13:02:13.158Z,27.20
2023-02-09T13:04:54.348Z,27.10
2023-02-09T13:07:53.654Z,27.40
2023-02-09T13:11:00.440Z,27.50
2023-02-09T13:13:52.470Z,27.70
2023-02-09T13:16:46.378Z,27.20
2023-02-09T13:19:42.515Z,27.40
2023-02-09T13:22:53.768Z,27.60
2023-02-09T13:25:32.504Z,27.70
2023-02-09T13:28:15.293Z,27.80
2023-02-09T13:30:42.746Z,27.80
2023-02-09T13:33:33.829Z,27.70
2023-02-09T13:36:24.657Z,27.50
2023-02-09T13:38:53.950Z,27.40
2023-02-09T13:41:28.709Z,27.30
2023-02-09T13:43:56.250Z,27.20
2023-02-09T13:46:26.494Z,27.20
2023-02-09T13:48:54.399Z,27.10
2023-02-09T13:51:23.771Z,27.00
2023-02-09T13:54:02.628Z,26.80
2023-02-09T13:56:32.570Z,26.70
2023-02-09T13:59:01.212Z,26.60
2023-02-09T14:01:32.496Z,26.60
2023-02-09T14:04:12.600Z,26.50
2023-02-09T14:07:03.174Z,26.50
2023-02-09T14:09:43.666Z,26.50
2023-02-09T14:12:19.704Z,26.50
2023-02-09T14:15:16.744Z,26.50
2023-02-09T14:17:51.183Z,26.50
2023-02-09T14:20:25.079Z,26.50
2023-02-09T14:23:01.093Z,26.50
2023-02-09T14:25:30.686Z,26.60
2023-02-09T14:27:58.266Z,26.60
2023-02-09T14:30:30.072Z,26.70
2023-02-09T14:32:59.517Z,26.70
2023-02-09T14:35:30.421Z,26.70
2023-02-09T14:38:02.012Z,26.70
2023-02-09T14:40:34.716Z,26.70
2023-02-09T14:43:25.147Z,26.70
2023-02-09T14:45:59.560Z,26.70
2023-02-09T14:48:28.566Z,26.60
2023-02-09T14:50:59.662Z,26.70
2023-02-09T14:53:29.983Z,26.50
2023-02-09T14:55:57.231Z,26.80
2023-02-09T14:58:30.220Z,27.10
2023-02-09T15:01:01.783Z,27.80
2023-02-09T15:03:29.332Z,27.90
2023-02-09T15:06:00.081Z,27.80
2023-02-09T15:08:30.312Z,27.70
2023-02-09T15:11:00.667Z,27.60
2023-02-09T15:13:32.702Z,27.60
2023-02-09T15:15:59.859Z,27.70
2023-02-09T15:18:27.695Z,27.80
2023-02-09T15:20:54.783Z,27.90
2023-02-09T15:23:21.831Z,28.00
2023-02-09T15:25:49.101Z,28.00
2023-02-09T15:28:29.953Z,28.10
2023-02-09T15:30:59.216Z,28.20
2023-02-09T15:33:27.801Z,28.20
2023-02-09T15:35:58.979Z,28.30
2023-02-09T15:38:27.868Z,28.40
2023-02-09T15:41:14.982Z,28.40
2023-02-09T15:44:01.933Z,28.50
2023-02-09T15:46:48.951Z,28.70
2023-02-09T15:49:16.150Z,28.80
2023-02-09T15:51:43.311Z,28.90
2023-02-09T15:54:18.152Z,29.00
2023-02-09T15:56:45.594Z,29.10
2023-02-09T15:59:22.654Z,29.20
2023-02-09T16:01:50.781Z,29.20
2023-02-09T16:04:18.282Z,29.30
2023-02-09T16:06:49.911Z,29.40
2023-02-09T16:09:23.475Z,29.50
2023-02-09T16:11:50.597Z,29.70
2023-02-09T16:14:20.793Z,29.80
2023-02-09T16:16:48.385Z,29.90
2023-02-09T16:19:17.055Z,30.20
2023-02-09T16:21:51.732Z,30.50
2023-02-09T16:24:42.052Z,30.70
2023-02-09T16:27:21.865Z,30.90
2023-02-09T16:29:49.058Z,31.00
2023-02-09T16:32:22.504Z,31.10
2023-02-09T16:34:50.405Z,31.10
2023-02-09T16:37:22.275Z,31.30
2023-02-09T16:39:49.415Z,31.30
2023-02-09T16:42:16.609Z,31.30
2023-02-09T16:44:43.804Z,31.50
2023-02-09T16:47:22.094Z,31.60
2023-02-09T16:49:59.666Z,31.70
2023-02-09T16:52:27.718Z,31.30
2023-02-09T16:54:58.649Z,31.40
2023-02-09T16:57:26.825Z,31.70
2023-02-09T16:59:54.563Z,32.20
2023-02-09T17:02:40.949Z,32.90
2023-02-09T17:05:24.971Z,33.60
2023-02-09T17:07:58.406Z,33.70
2023-02-09T17:10:29.692Z,33.40
2023-02-09T17:12:57.622Z,33.10
2023-02-09T17:15:31.163Z,32.80
2023-02-09T17:18:04.207Z,32.40
2023-02-09T17:20:37.457Z,32.10
2023-02-09T17:23:04.676Z,31.80
2023-02-09T17:25:31.884Z,31.60
2023-02-09T17:27:59.043Z,31.30
2023-02-09T17:30:26.276Z,31.20
2023-02-09T17:33:00.507Z,31.10
2023-02-09T17:35:52.900Z,31.10
2023-02-09T17:38:25.243Z,31.10
2023-02-09T17:40:54.070Z,31.10
2023-02-09T17:43:21.814Z,31.20
2023-02-09T17:45:51.171Z,31.20
2023-02-09T17:48:20.434Z,31.30
2023-02-09T17:50:49.438Z,31.30
2023-02-09T17:53:23.750Z,31.30
2023-02-09T17:55:51.802Z,31.30
2023-02-09T17:58:19.143Z,31.30
2023-02-09T18:00:46.791Z,31.40
2023-02-09T18:03:18.119Z,31.30
2023-02-09T18:05:49.544Z,31.30
2023-02-09T18:08:16.795Z,31.30
2023-02-09T18:10:44.030Z,31.10
2023-02-09T18:13:18.662Z,31.00
2023-02-09T18:15:48.247Z,31.10
2023-02-09T18:18:16.096Z,31.20
2023-02-09T18:20:43.275Z,31.20
2023-02-09T18:23:15.329Z,31.40
2023-02-09T18:25:42.527Z,31.50
2023-02-09T18:28:09.686Z,31.60
2023-02-09T18:30:39.493Z,31.70
2023-02-09T18:33:07.738Z,31.80
2023-02-09T18:35:44.984Z,31.80
2023-02-09T18:38:14.475Z,31.80
2023-02-09T18:40:41.630Z,31.90
2023-02-09T18:43:08.864Z,31.90
2023-02-09T18:45:38.780Z,31.90
2023-02-09T18:48:05.954Z,31.80
2023-02-09T18:50:33.332Z,31.70
2023-02-09T18:53:03.301Z,31.70
2023-02-09T18:55:32.209Z,31.60
2023-02-09T18:58:04.156Z,31.60
2023-02-09T19:00:31.886Z,31.50
2023-02-09T19:02:59.476Z,31.30
2023-02-09T19:05:29.418Z,31.30
2023-02-09T19:07:57.218Z,31.30
2023-02-09T19:10:24.591Z,31.20
2023-02-09T19:12:52.119Z,31.20
2023-02-09T19:15:19.554Z,31.00
2023-02-09T19:17:47.019Z,31.00
2023-02-09T19:20:18.649Z,30.90
2023-02-09T19:22:47.645Z,30.90
2023-02-09T19:25:15.358Z,30.80
2023-02-09T19:27:42.575Z,30.80
2023-02-09T19:30:14.044Z,30.70
2023-02-09T19:32:41.283Z,30.70
2023-02-09T19:35:08.752Z,30.60
2023-02-09T19:37:37.534Z,30.60
2023-02-09T19:40:07.502Z,30.50
2023-02-09T19:42:34.642Z,30.50
2023-02-09T19:45:01.709Z,30.40
2023-02-09T19:47:29.086Z,30.40
2023-02-09T19:49:59.602Z,30.40
2023-02-09T19:52:27.551Z,30.30
2023-02-09T19:54:57.314Z,30.30
2023-02-09T19:57:24.876Z,30.20
2023-02-09T19:59:53.587Z,30.20
2023-02-09T20:02:20.730Z,30.10
2023-02-09T20:04:47.800Z,30.10
2023-02-09T20:07:15.123Z,30.10
2023-02-09T20:09:42.363Z,30.10
2023-02-09T20:12:09.543Z,30.10
2023-02-09T20:14:36.756Z,30.10
2023-02-09T20:17:03.924Z,30.00
2023-02-09T20:19:31.254Z,30.00
2023-02-09T20:21:58.766Z,30.00
2023-02-09T20:24:25.842Z,30.00
2023-02-09T20:26:52.912Z,30.00
2023-02-09T20:29:22.275Z,30.00
2023-02-09T20:31:49.826Z,30.00
2023-02-09T20:34:17.197Z,30.00
2023-02-09T20:36:46.042Z,30.00
2023-02-09T20:39:16.353Z,30.00
2023-02-09T20:42:08.109Z,30.00
2023-02-09T20:44:55.469Z,30.00
2023-02-09T20:47:22.572Z,29.90
2023-02-09T20:49:49.655Z,30.00
2023-02-09T20:52:17.127Z,29.90
2023-02-09T20:54:44.347Z,29.90
2023-02-09T20:57:11.508Z,29.90
2023-02-09T20:59:38.625Z,29.90
2023-02-09T21:02:05.971Z,29.90
2023-02-09T21:04:33.096Z,29.90
2023-02-09T21:07:00.619Z,29.90
2023-02-09T21:09:28.472Z,29.90
2023-02-09T21:11:56.478Z,29.80
2023-02-09T21:14:32.452Z,29.80
2023-02-09T21:16:59.964Z,29.80
2023-02-09T21:19:27.028Z,29.80
2023-02-09T21:21:54.203Z,29.80
2023-02-09T21:24:21.719Z,29.80
2023-02-09T21:26:48.852Z,29.80
2023-02-09T21:29:16.354Z,29.80
2023-02-09T21:31:44.916Z,29.80
2023-02-09T21:34:16.592Z,29.80
2023-02-09T21:36:43.819Z,29.80
2023-02-09T21:39:11.021Z,29.80
2023-02-09T21:41:57.992Z,29.80
2023-02-09T21:44:25.049Z,29.80
2023-02-09T21:46:52.357Z,29.80
2023-02-09T21:49:19.883Z,29.80
2023-02-09T21:51:47.068Z,29.80
2023-02-09T21:54:16.191Z,29.80
2023-02-09T21:56:44.278Z,29.80
2023-02-09T21:59:12.015Z,29.70
2023-02-09T22:01:39.663Z,29.70
2023-02-09T22:04:06.916Z,29.70
2023-02-09T22:06:33.976Z,29.70
2023-02-09T22:09:03.012Z,29.70
2023-02-09T22:11:30.346Z,29.60
2023-02-09T22:13:57.502Z,29.60
2023-02-09T22:16:25.546Z,29.60
2023-02-09T22:18:53.244Z,29.60
2023-02-09T22:21:20.446Z,29.60
2023-02-09T22:23:48.111Z,29.60
2023-02-09T22:26:15.334Z,29.60
2023-02-09T22:28:42.849Z,29.60
2023-02-09T22:31:13.031Z,29.60
2023-02-09T22:33:40.310Z,30.00
2023-02-09T22:36:11.070Z,29.60
2023-02-09T22:38:38.206Z,29.50
2023-02-09T22:41:23.327Z,29.50
2023-02-09T22:44:03.093Z,29.60
2023-02-09T22:46:41.063Z,29.50
2023-02-09T22:49:12.713Z,29.60
2023-02-09T22:51:39.909Z,29.50
2023-02-09T22:54:07.413Z,29.50
2023-02-09T22:56:34.566Z,29.50
2023-02-09T22:59:01.919Z,29.50
2023-02-09T23:01:30.008Z,29.50
2023-02-09T23:03:57.671Z,29.50
2023-02-09T23:06:27.476Z,29.50
2023-02-09T23:08:56.646Z,29.50
2023-02-09T23:11:24.083Z,29.50
2023-02-09T23:14:03.861Z,29.50
2023-02-09T23:16:36.690Z,29.50
2023-02-09T23:19:07.030Z,29.50
2023-02-09T23:21:39.628Z,29.50
2023-02-09T23:24:07.805Z,29.40
2023-02-09T23:26:35.420Z,29.40
2023-02-09T23:29:05.174Z,29.40
2023-02-09T23:31:32.496Z,29.40
2023-02-09T23:33:59.965Z,29.40
2023-02-09T23:36:29.484Z,29.40
2023-02-09T23:38:59.537Z,29.40
2023-02-09T23:41:27.396Z,29.50
2023-02-09T23:43:54.845Z,29.50
2023-02-09T23:46:25.776Z,29.40
2023-02-09T23:48:55.033Z,29.50
2023-02-09T23:51:26.809Z,29.50
2023-02-09T23:53:56.052Z,29.50
2023-02-09T23:56:23.683Z,29.50
2023-02-09T23:58:52.629Z,29.50
